Time;durP1;ratioP1;P1;durP2;ratioP2;P2;SDS_P1;SDS_P2;PMS_P1;PMS_P2;Temp;Humidity;BMP_temperature;BMP_pressure;BME280_temperature;BME280_humidity;BME280_pressure;Samples;Min_cycle;Max_cycle;Signal;HPM_P1;HPM_P2
2021/05/17 00:00:21;;;;;;;1.27;0.60;;;11.60;50.70;;;;;;5133451;27;37876;-81
2021/05/17 00:02:49;;;;;;;0.97;0.50;;;11.60;50.90;;;;;;5134335;27;36818;-80
2021/05/17 00:05:17;;;;;;;0.70;0.50;;;11.60;50.60;;;;;;5121748;27;38583;-81
2021/05/17 00:07:45;;;;;;;2.50;0.60;;;11.60;50.80;;;;;;5132890;27;39394;-80
2021/05/17 00:10:14;;;;;;;1.43;0.50;;;11.60;50.70;;;;;;5138837;27;38055;-80
2021/05/17 00:12:44;;;;;;;1.47;0.50;;;11.60;50.50;;;;;;5137117;27;37501;-79
2021/05/17 00:15:14;;;;;;;0.60;0.40;;;11.70;50.60;;;;;;5110184;27;38357;-79
2021/05/17 00:17:42;;;;;;;0.80;0.40;;;11.70;50.60;;;;;;5130723;27;39490;-79
2021/05/17 00:20:14;;;;;;;0.60;0.40;;;11.70;50.30;;;;;;5122394;27;37769;-81
2021/05/17 00:22:44;;;;;;;0.80;0.60;;;11.70;50.30;;;;;;5108517;27;36022;-81
2021/05/17 00:25:12;;;;;;;1.43;0.40;;;11.70;50.40;;;;;;5129984;27;38297;-80
2021/05/17 00:27:44;;;;;;;1.87;0.60;;;11.70;50.40;;;;;;5132331;27;38782;-80
2021/05/17 00:30:12;;;;;;;1.97;0.63;;;11.60;50.10;;;;;;5088533;28;37142;-80
2021/05/17 00:32:39;;;;;;;1.00;0.50;;;11.60;50.20;;;;;;5111913;27;37228;-81
2021/05/17 00:35:10;;;;;;;1.47;0.50;;;11.60;50.40;;;;;;5095689;28;38479;-82
2021/05/17 00:37:39;;;;;;;1.87;0.60;;;11.50;50.30;;;;;;5109284;27;38612;-79
2021/05/17 00:40:08;;;;;;;2.33;0.60;;;11.40;50.40;;;;;;5114037;27;37805;-79
2021/05/17 00:42:36;;;;;;;0.90;0.50;;;11.30;50.50;;;;;;5115035;28;37064;-79
2021/05/17 00:45:08;;;;;;;1.00;0.60;;;11.30;50.80;;;;;;5096886;28;38195;-79
2021/05/17 00:47:39;;;;;;;1.70;0.50;;;11.10;51.00;;;;;;5112903;27;39800;-80
2021/05/17 00:50:08;;;;;;;1.07;0.50;;;11.10;51.60;;;;;;5097532;28;36686;-79
2021/05/17 00:52:38;;;;;;;2.43;0.60;;;11.10;51.80;;;;;;5096177;28;38516;-80
2021/05/17 00:55:11;;;;;;;1.77;0.67;;;11.10;51.70;;;;;;5096948;28;38865;-80
2021/05/17 00:57:38;;;;;;;0.87;0.50;;;11.20;51.70;;;;;;5100984;28;37806;-80
2021/05/17 01:00:10;;;;;;;2.00;0.60;;;11.30;51.40;;;;;;5102704;28;36719;-80
2021/05/17 01:02:46;;;;;;;1.50;0.57;;;11.40;51.10;;;;;;5099308;28;37675;-81
2021/05/17 01:05:31;;;;;;;1.50;0.60;;;11.50;50.80;;;;;;5099185;27;40459;-80
2021/05/17 01:08:00;;;;;;;0.83;0.47;;;11.50;50.70;;;;;;5086911;28;38760;-80
2021/05/17 01:10:31;;;;;;;1.30;0.50;;;11.50;50.40;;;;;;5108973;27;38107;-81
2021/05/17 01:12:58;;;;;;;1.37;0.43;;;11.50;50.40;;;;;;5095678;28;36691;-80
2021/05/17 01:15:30;;;;;;;3.73;0.57;;;11.50;50.00;;;;;;5114788;28;39488;-80
2021/05/17 01:17:59;;;;;;;1.23;0.50;;;11.50;50.20;;;;;;5113532;27;39992;-80
2021/05/17 01:20:32;;;;;;;0.80;0.40;;;11.50;50.20;;;;;;5104701;28;36696;-80
2021/05/17 01:23:29;;;;;;;1.20;0.50;;;11.50;50.00;;;;;;5095846;28;35916;-80
2021/05/17 01:26:07;;;;;;;0.90;0.47;;;11.40;49.90;;;;;;5096039;27;39395;-80
2021/05/17 01:28:34;;;;;;;1.00;0.50;;;11.40;49.90;;;;;;5095515;28;37912;-80
2021/05/17 01:31:05;;;;;;;0.80;0.40;;;11.30;49.90;;;;;;5104091;27;36731;-80
2021/05/17 01:33:35;;;;;;;2.60;0.50;;;11.40;50.00;;;;;;5097692;27;35872;-81
2021/05/17 01:36:05;;;;;;;0.93;0.50;;;11.50;49.70;;;;;;5116638;27;39059;-80
2021/05/17 01:38:38;;;;;;;1.30;0.50;;;11.50;49.50;;;;;;5117199;27;37916;-80
2021/05/17 01:41:09;;;;;;;1.20;0.40;;;11.50;49.30;;;;;;5118097;27;37605;-80
2021/05/17 01:43:42;;;;;;;1.33;0.40;;;11.50;49.40;;;;;;5119985;27;36168;-79
2021/05/17 01:46:12;;;;;;;1.00;0.50;;;11.70;49.30;;;;;;5117242;27;39230;-80
2021/05/17 01:48:41;;;;;;;0.60;0.30;;;11.70;49.20;;;;;;5124938;27;39118;-82
2021/05/17 01:51:14;;;;;;;1.10;0.40;;;11.70;48.90;;;;;;5140230;27;38171;-80
2021/05/17 01:53:46;;;;;;;0.70;0.40;;;11.80;48.90;;;;;;5120768;27;36051;-81
2021/05/17 01:56:18;;;;;;;1.30;0.50;;;11.70;48.50;;;;;;5120190;27;39232;-79
2021/05/17 01:58:46;;;;;;;0.70;0.40;;;11.60;48.50;;;;;;5120945;27;38181;-80
2021/05/17 02:01:16;;;;;;;1.30;0.47;;;11.60;48.60;;;;;;5142974;27;38517;-80
2021/05/17 02:03:45;;;;;;;1.20;0.40;;;11.60;48.60;;;;;;5135780;27;37032;-79
2021/05/17 02:06:14;;;;;;;0.63;0.40;;;11.50;48.60;;;;;;5136746;27;40949;-81
2021/05/17 02:08:45;;;;;;;1.63;0.50;;;11.30;48.80;;;;;;5129161;27;39116;-80
2021/05/17 02:11:14;;;;;;;0.90;0.40;;;11.20;48.90;;;;;;5115108;27;37419;-80
2021/05/17 02:13:46;;;;;;;0.90;0.43;;;11.10;49.20;;;;;;5101359;27;35832;-80
2021/05/17 02:16:15;;;;;;;0.70;0.50;;;11.10;49.40;;;;;;5131949;27;38482;-80
2021/05/17 02:18:48;;;;;;;0.70;0.40;;;11.00;49.60;;;;;;5115728;27;37766;-80
2021/05/17 02:21:16;;;;;;;1.27;0.50;;;11.00;50.10;;;;;;5114459;27;38521;-80
2021/05/17 02:23:44;;;;;;;0.70;0.40;;;11.10;49.40;;;;;;5133922;27;37123;-81
2021/05/17 02:26:12;;;;;;;0.70;0.50;;;11.10;49.30;;;;;;5113054;27;39228;-80
2021/05/17 02:28:42;;;;;;;0.60;0.40;;;11.10;49.20;;;;;;5114893;27;38616;-80
2021/05/17 02:31:12;;;;;;;0.60;0.30;;;11.20;49.00;;;;;;5110942;28;37130;-80
2021/05/17 02:33:41;;;;;;;1.03;0.40;;;11.20;48.80;;;;;;5091182;28;36209;-80
2021/05/17 02:36:09;;;;;;;0.60;0.40;;;11.20;48.50;;;;;;5101421;27;39368;-80
2021/05/17 02:38:38;;;;;;;0.60;0.40;;;11.30;48.50;;;;;;5107449;27;38833;-80
2021/05/17 02:41:10;;;;;;;0.80;0.40;;;11.30;48.50;;;;;;5095611;27;39110;-80
2021/05/17 02:43:38;;;;;;;0.70;0.40;;;11.30;48.30;;;;;;5115876;27;37761;-81
2021/05/17 02:46:17;;;;;;;0.90;0.40;;;11.50;47.90;;;;;;5117977;27;39747;-80
2021/05/17 02:48:50;;;;;;;0.60;0.33;;;11.50;47.70;;;;;;5118292;27;38757;-80
2021/05/17 02:51:17;;;;;;;1.27;0.50;;;11.50;47.50;;;;;;5130724;27;37980;-80
2021/05/17 02:54:10;;;;;;;0.70;0.40;;;11.50;47.60;;;;;;5125128;27;37828;-80
2021/05/17 02:57:07;;;;;;;1.57;0.40;;;11.50;47.60;;;;;;5136059;27;40148;-81
2021/05/17 03:00:03;;;;;;;1.03;0.40;;;11.50;47.60;;;;;;5122688;27;37910;-80
2021/05/17 03:02:46;;;;;;;0.70;0.40;;;11.40;47.30;;;;;;5110038;27;37159;-79
2021/05/17 03:05:15;;;;;;;0.60;0.40;;;11.40;47.50;;;;;;5138321;27;35892;-80
2021/05/17 03:07:47;;;;;;;1.60;0.47;;;11.40;47.40;;;;;;5111192;27;38530;-80
2021/05/17 03:10:15;;;;;;;1.33;0.40;;;11.40;47.60;;;;;;5109142;27;37693;-80
2021/05/17 03:12:44;;;;;;;1.53;0.70;;;11.40;47.70;;;;;;5103393;27;36717;-80
2021/05/17 03:15:14;;;;;;;1.80;0.60;;;11.30;47.80;;;;;;5136450;27;36974;-80
2021/05/17 03:17:42;;;;;;;2.60;0.40;;;11.30;48.00;;;;;;5115087;27;39698;-79
2021/05/17 03:20:13;;;;;;;1.23;0.60;;;11.30;48.10;;;;;;5102109;27;38330;-81
2021/05/17 03:22:40;;;;;;;2.00;0.60;;;11.40;48.10;;;;;;5135478;27;38118;-81
2021/05/17 03:25:10;;;;;;;2.07;0.60;;;11.50;48.00;;;;;;5132644;27;37470;-81
2021/05/17 03:27:39;;;;;;;1.10;0.40;;;11.50;48.00;;;;;;5135361;27;40639;-80
2021/05/17 03:30:08;;;;;;;0.60;0.40;;;11.60;47.90;;;;;;5135140;27;39446;-79
2021/05/17 03:32:35;;;;;;;2.40;0.40;;;11.60;47.90;;;;;;5117987;27;38888;-81
2021/05/17 03:35:03;;;;;;;1.03;0.40;;;11.60;48.00;;;;;;5136491;27;37840;-80
2021/05/17 03:37:30;;;;;;;1.07;0.47;;;11.60;48.10;;;;;;5135600;27;39766;-80
2021/05/17 03:39:57;;;;;;;0.70;0.40;;;11.60;48.30;;;;;;5136016;27;39902;-80
2021/05/17 03:42:27;;;;;;;5.70;0.60;;;11.60;48.40;;;;;;5135978;27;38768;-81
2021/05/17 03:44:54;;;;;;;0.93;0.40;;;11.60;48.20;;;;;;5117608;27;36802;-81
2021/05/17 03:47:22;;;;;;;1.33;0.50;;;11.60;48.30;;;;;;5133006;27;39964;-81
2021/05/17 03:49:49;;;;;;;1.00;0.50;;;11.70;48.40;;;;;;5135633;27;40136;-81
2021/05/17 03:52:16;;;;;;;1.27;0.50;;;11.70;48.20;;;;;;5136261;27;37928;-80
2021/05/17 03:54:43;;;;;;;1.20;0.60;;;11.80;48.30;;;;;;5116881;27;36434;-79
2021/05/17 03:57:10;;;;;;;1.00;0.50;;;11.70;48.20;;;;;;5136120;27;39335;-81
2021/05/17 03:59:37;;;;;;;3.83;0.60;;;11.80;48.20;;;;;;5117696;27;38840;-81
2021/05/17 04:02:04;;;;;;;1.90;0.40;;;11.80;48.20;;;;;;5135645;27;38208;-81
2021/05/17 04:04:37;;;;;;;1.67;0.77;;;11.90;48.10;;;;;;5132040;27;38464;-81
2021/05/17 04:07:12;;;;;;;3.10;0.60;;;11.90;47.90;;;;;;5133890;27;40447;-81
2021/05/17 04:15:12;;;;;;;2.20;0.60;;;12.00;47.80;;;;;;5136138;27;37850;-81
2021/05/17 04:17:39;;;;;;;2.67;0.60;;;12.00;48.40;;;;;;5136003;27;40251;-81
2021/05/17 04:20:10;;;;;;;0.70;0.50;;;12.10;47.90;;;;;;5135326;27;39070;-80
2021/05/17 04:22:37;;;;;;;0.80;0.50;;;12.10;48.00;;;;;;5135212;27;37765;-80
2021/05/17 04:25:05;;;;;;;1.33;0.60;;;12.10;47.90;;;;;;5115718;27;35961;-81
2021/05/17 04:27:34;;;;;;;1.33;0.60;;;12.20;48.00;;;;;;5120683;27;40133;-81
2021/05/17 04:30:01;;;;;;;1.87;0.50;;;12.30;47.50;;;;;;5113992;27;38740;-80
2021/05/17 04:32:28;;;;;;;1.70;0.50;;;12.50;47.00;;;;;;5114441;27;37503;-80
2021/05/17 04:34:55;;;;;;;1.43;0.50;;;12.60;47.00;;;;;;5135313;27;37408;-81
2021/05/17 04:37:23;;;;;;;1.33;0.50;;;12.70;46.80;;;;;;5124347;27;40735;-81
2021/05/17 04:39:51;;;;;;;1.10;0.50;;;12.80;46.50;;;;;;5116390;27;37647;-81
2021/05/17 04:42:18;;;;;;;0.93;0.50;;;12.90;46.00;;;;;;5133705;27;38812;-81
2021/05/17 04:44:48;;;;;;;1.80;0.70;;;12.90;46.10;;;;;;5130153;27;37204;-81
2021/05/17 04:47:15;;;;;;;1.50;0.60;;;13.00;45.80;;;;;;5134694;27;40823;-80
2021/05/17 04:49:42;;;;;;;4.07;0.80;;;13.10;45.80;;;;;;5135539;27;38887;-81
2021/05/17 04:52:09;;;;;;;1.90;0.50;;;13.20;45.20;;;;;;5117251;27;37277;-81
2021/05/17 04:54:37;;;;;;;1.63;0.40;;;13.20;44.90;;;;;;5115545;27;36901;-80
2021/05/17 04:57:04;;;;;;;0.97;0.50;;;13.30;45.50;;;;;;5124533;27;40126;-80
2021/05/17 04:59:31;;;;;;;1.33;0.60;;;13.30;44.80;;;;;;5119845;27;37747;-81
2021/05/17 05:01:58;;;;;;;1.63;0.60;;;13.30;44.70;;;;;;5141452;27;38358;-82
2021/05/17 05:04:25;;;;;;;1.30;0.60;;;13.30;44.90;;;;;;5120135;27;36704;-80
2021/05/17 05:06:52;;;;;;;2.57;0.90;;;13.30;45.10;;;;;;5117354;27;38407;-81
2021/05/17 05:09:19;;;;;;;1.40;0.40;;;13.40;45.00;;;;;;5115040;27;38648;-80
2021/05/17 05:11:49;;;;;;;2.40;0.90;;;13.60;44.20;;;;;;5116168;27;37212;-80
2021/05/17 05:14:17;;;;;;;1.10;0.43;;;13.80;43.70;;;;;;5134340;27;37074;-81
2021/05/17 05:16:44;;;;;;;1.90;0.47;;;14.00;43.40;;;;;;5134892;27;40399;-81
2021/05/17 05:19:11;;;;;;;1.47;0.57;;;14.20;43.00;;;;;;5134742;27;39388;-80
2021/05/17 05:21:38;;;;;;;2.40;0.50;;;14.30;42.70;;;;;;5116133;27;36701;-81
2021/05/17 05:24:06;;;;;;;1.20;0.40;;;14.50;42.10;;;;;;5133008;27;37610;-80
2021/05/17 05:26:52;;;;;;;1.87;0.50;;;14.50;41.80;;;;;;5126943;27;40173;-81
2021/05/17 05:29:35;;;;;;;1.43;0.50;;;14.40;41.90;;;;;;5113583;28;39010;-80
2021/05/17 05:32:09;;;;;;;3.00;0.60;;;14.30;42.00;;;;;;5118505;27;36775;-81
2021/05/17 05:34:36;;;;;;;2.10;0.50;;;14.20;42.30;;;;;;5117941;27;36816;-81
2021/05/17 05:37:05;;;;;;;3.20;0.60;;;14.40;42.30;;;;;;5117847;27;38666;-80
2021/05/17 05:39:35;;;;;;;1.47;0.60;;;14.30;41.90;;;;;;5135956;27;38982;-80
2021/05/17 05:42:05;;;;;;;2.20;0.50;;;14.10;41.90;;;;;;5117452;27;37383;-81
2021/05/17 05:44:40;;;;;;;0.90;0.50;;;14.20;42.00;;;;;;5136012;27;38011;-81
2021/05/17 05:47:08;;;;;;;0.80;0.50;;;14.10;42.00;;;;;;5134996;27;39605;-81
2021/05/17 05:49:37;;;;;;;1.83;0.60;;;14.10;42.20;;;;;;5116806;27;37864;-81
2021/05/17 05:52:05;;;;;;;2.53;0.40;;;14.00;42.10;;;;;;5122461;27;36778;-81
2021/05/17 05:54:32;;;;;;;2.20;0.50;;;13.90;42.10;;;;;;5144585;27;37291;-80
2021/05/17 05:56:59;;;;;;;1.43;0.50;;;13.90;42.40;;;;;;5128556;27;38714;-80
2021/05/17 05:59:26;;;;;;;1.33;0.50;;;14.20;42.30;;;;;;5120988;27;37765;-80
2021/05/17 06:01:54;;;;;;;3.47;0.97;;;14.70;41.20;;;;;;5141714;27;38665;-81
2021/05/17 06:04:21;;;;;;;0.70;0.40;;;15.00;40.30;;;;;;5143580;27;37307;-82
2021/05/17 06:06:48;;;;;;;1.00;0.50;;;15.30;40.00;;;;;;5144463;27;39632;-82
2021/05/17 06:09:15;;;;;;;1.80;0.50;;;15.70;40.00;;;;;;5124492;27;37365;-81
2021/05/17 06:11:42;;;;;;;1.00;0.40;;;16.30;38.60;;;;;;5136961;27;38274;-81
2021/05/17 06:14:11;;;;;;;1.57;0.40;;;16.80;37.70;;;;;;5116808;27;35722;-81
2021/05/17 06:16:38;;;;;;;0.93;0.43;;;17.10;37.50;;;;;;5136260;27;39577;-81
2021/05/17 06:19:07;;;;;;;1.00;0.40;;;17.30;36.60;;;;;;5137782;27;39198;-82
2021/05/17 06:21:34;;;;;;;5.60;0.60;;;17.00;36.70;;;;;;5138341;27;39001;-81
2021/05/17 06:24:03;;;;;;;8.13;0.80;;;16.60;37.30;;;;;;5138693;27;36908;-82
2021/05/17 06:26:31;;;;;;;0.80;0.40;;;16.30;38.20;;;;;;5138649;27;39600;-81
2021/05/17 06:28:58;;;;;;;1.20;0.50;;;16.00;38.50;;;;;;5138008;27;39627;-81
2021/05/17 06:31:26;;;;;;;1.30;0.40;;;15.80;38.90;;;;;;5137512;27;37176;-81
2021/05/17 06:33:53;;;;;;;2.23;0.70;;;15.70;39.10;;;;;;5138166;27;37116;-81
2021/05/17 06:36:21;;;;;;;1.00;0.60;;;15.70;39.80;;;;;;5137923;27;39520;-81
2021/05/17 06:38:52;;;;;;;2.97;1.00;;;15.80;39.90;;;;;;5137520;27;39626;-80
2021/05/17 06:41:20;;;;;;;3.67;0.60;;;15.90;39.30;;;;;;5113538;27;36659;-81
2021/05/17 06:43:50;;;;;;;1.60;1.07;;;15.90;39.50;;;;;;5140399;27;37165;-81
2021/05/17 06:46:17;;;;;;;6.60;0.60;;;15.80;39.00;;;;;;5138980;27;40108;-82
2021/05/17 06:48:45;;;;;;;1.30;0.50;;;15.70;39.60;;;;;;5131459;27;40047;-80
2021/05/17 06:51:15;;;;;;;4.00;0.90;;;15.70;39.40;;;;;;5131568;27;38291;-81
2021/05/17 06:53:44;;;;;;;1.10;0.50;;;15.70;40.00;;;;;;5127458;27;36967;-80
2021/05/17 06:56:19;;;;;;;2.63;0.70;;;15.60;39.60;;;;;;5125849;27;40525;-81
2021/05/17 06:58:54;;;;;;;2.20;0.60;;;15.60;40.60;;;;;;5114310;27;37630;-81
2021/05/17 07:01:22;;;;;;;3.30;0.80;;;15.60;40.40;;;;;;5122128;27;39004;-81
2021/05/17 07:03:51;;;;;;;2.93;0.63;;;15.70;40.80;;;;;;5142629;27;37533;-79
2021/05/17 07:06:23;;;;;;;1.77;0.60;;;16.00;39.80;;;;;;5126628;27;38569;-77
2021/05/17 07:11:50;;;;;;;5.03;1.77;;;16.00;38.20;;;;;;5130543;27;37210;-79
2021/05/17 07:14:20;;;;;;;3.33;0.70;;;15.80;38.60;;;;;;5138946;27;36868;-78
2021/05/17 07:16:48;;;;;;;4.27;1.20;;;15.60;39.20;;;;;;5115846;28;39746;-80
2021/05/17 07:19:15;;;;;;;6.30;1.07;;;15.50;39.90;;;;;;5141743;27;37494;-79
2021/05/17 07:24:28;;;;;;;2.60;0.90;;;15.30;40.00;;;;;;5126612;27;37139;-79
2021/05/17 07:26:58;;;;;;;1.83;0.60;;;15.30;40.00;;;;;;5119849;27;38247;-79
2021/05/17 07:29:25;;;;;;;2.50;0.80;;;15.30;40.50;;;;;;5132551;27;39867;-79
2021/05/17 07:31:53;;;;;;;2.73;0.80;;;15.10;41.30;;;;;;5133181;27;38814;-79
2021/05/17 07:34:20;;;;;;;2.87;0.77;;;14.90;41.90;;;;;;5115623;27;35835;-79
2021/05/17 07:36:47;;;;;;;2.40;0.90;;;14.90;42.00;;;;;;5135989;27;41102;-79
2021/05/17 07:39:18;;;;;;;3.73;0.90;;;14.90;41.90;;;;;;5114490;27;39319;-80
2021/05/17 07:41:46;;;;;;;5.27;0.80;;;15.20;42.20;;;;;;5122746;27;37133;-79
2021/05/17 07:44:13;;;;;;;3.63;0.70;;;15.40;42.60;;;;;;5138005;27;38117;-80
2021/05/17 07:46:40;;;;;;;2.40;0.50;;;15.50;43.20;;;;;;5138059;27;39295;-81
2021/05/17 07:49:12;;;;;;;4.10;0.70;;;15.50;43.40;;;;;;5130964;27;39093;-79
2021/05/17 07:51:41;;;;;;;1.93;0.77;;;15.60;43.20;;;;;;5131500;27;37978;-79
2021/05/17 07:54:10;;;;;;;2.30;0.70;;;15.50;43.70;;;;;;5115665;27;35711;-79
2021/05/17 07:56:37;;;;;;;2.90;0.90;;;15.00;46.40;;;;;;5129202;27;39474;-79
2021/05/17 07:59:06;;;;;;;1.70;1.00;;;14.80;48.50;;;;;;5132697;27;39585;-80
2021/05/17 08:01:33;;;;;;;0.97;0.60;;;14.80;49.10;;;;;;5134718;27;37900;-79
2021/05/17 08:04:01;;;;;;;1.10;0.50;;;15.00;47.60;;;;;;5131318;27;38120;-79
2021/05/17 08:06:30;;;;;;;2.70;0.50;;;15.50;45.20;;;;;;5131903;27;39655;-79
2021/05/17 08:08:57;;;;;;;1.97;0.53;;;16.40;44.70;;;;;;5133232;27;38858;-80
2021/05/17 08:11:24;;;;;;;1.10;0.50;;;17.50;41.60;;;;;;5118638;27;36591;-79
2021/05/17 08:13:51;;;;;;;2.43;0.60;;;18.10;40.50;;;;;;5131983;27;37785;-80
2021/05/17 08:16:19;;;;;;;3.10;1.00;;;18.60;39.20;;;;;;5127061;27;39088;-81
2021/05/17 08:18:49;;;;;;;2.03;0.77;;;18.90;37.90;;;;;;5121483;27;38043;-79
2021/05/17 08:21:16;;;;;;;2.63;0.50;;;19.10;36.70;;;;;;5136334;27;37984;-80
2021/05/17 08:23:43;;;;;;;2.50;0.63;;;19.20;36.60;;;;;;5124495;27;35977;-78
2021/05/17 08:26:11;;;;;;;4.00;1.10;;;19.20;36.60;;;;;;5118548;27;39753;-79
2021/05/17 08:28:41;;;;;;;2.60;0.80;;;19.40;36.70;;;;;;5120381;27;37558;-78
2021/05/17 08:31:12;;;;;;;2.40;0.60;;;20.60;35.90;;;;;;5133445;27;37801;-79
2021/05/17 08:33:43;;;;;;;3.17;0.70;;;23.80;31.40;;;;;;5136431;27;37003;-79
2021/05/17 08:36:10;;;;;;;1.63;0.63;;;27.30;27.50;;;;;;5135411;27;39276;-80
2021/05/17 08:38:38;;;;;;;2.37;0.60;;;30.20;24.50;;;;;;5129362;27;38982;-79
2021/05/17 08:41:07;;;;;;;1.47;0.60;;;32.80;21.80;;;;;;5125903;27;38327;-79
2021/05/17 08:43:37;;;;;;;1.37;0.60;;;34.60;19.90;;;;;;5131361;27;37779;-80
2021/05/17 08:46:09;;;;;;;0.90;0.57;;;35.10;18.80;;;;;;5137463;27;41342;-81
2021/05/17 08:48:46;;;;;;;4.57;0.50;;;35.70;17.90;;;;;;5135985;27;39158;-80
2021/05/17 08:51:15;;;;;;;2.73;0.63;;;34.70;18.00;;;;;;5118898;27;36830;-80
2021/05/17 08:53:44;;;;;;;1.93;0.60;;;34.90;18.00;;;;;;5136696;27;37492;-80
2021/05/17 08:56:11;;;;;;;0.80;0.50;;;35.70;17.10;;;;;;5134187;27;38474;-79
2021/05/17 08:58:38;;;;;;;2.30;0.50;;;35.50;16.90;;;;;;5136086;27;38752;-80
2021/05/17 09:01:07;;;;;;;0.90;0.50;;;35.70;16.90;;;;;;5117047;27;38107;-81
2021/05/17 09:03:35;;;;;;;1.10;0.50;;;36.00;15.90;;;;;;5135330;27;37282;-81
2021/05/17 09:06:07;;;;;;;1.63;0.40;;;36.80;15.40;;;;;;5117476;27;38632;-81
2021/05/17 09:08:42;;;;;;;1.07;0.40;;;36.70;15.40;;;;;;5131045;27;38803;-80
2021/05/17 09:11:09;;;;;;;1.37;0.40;;;36.80;14.70;;;;;;5129040;27;38960;-80
2021/05/17 09:13:36;;;;;;;3.50;0.67;;;37.20;15.00;;;;;;5136255;27;37940;-81
2021/05/17 09:16:04;;;;;;;3.70;0.80;;;38.00;13.90;;;;;;5117181;27;38179;-79
2021/05/17 09:18:39;;;;;;;1.17;0.53;;;37.20;14.00;;;;;;5137279;27;38046;-79
2021/05/17 09:21:09;;;;;;;1.70;0.50;;;37.20;14.40;;;;;;5137883;27;37920;-79
2021/05/17 09:23:38;;;;;;;4.20;0.90;;;36.80;13.90;;;;;;5134285;27;37219;-79
2021/05/17 09:26:09;;;;;;;2.27;0.63;;;36.40;14.40;;;;;;5110873;27;39352;-79
2021/05/17 09:28:37;;;;;;;8.60;0.70;;;36.20;14.60;;;;;;5134407;27;39685;-78
2021/05/17 09:31:06;;;;;;;7.07;0.80;;;35.30;15.00;;;;;;5119413;27;34941;-77
2021/05/17 09:33:46;;;;;;;14.07;1.37;;;35.50;14.50;;;;;;5118987;27;36954;-80
2021/05/17 09:36:29;;;;;;;2.43;0.70;;;34.60;14.90;;;;;;5137523;27;39873;-79
2021/05/17 09:38:58;;;;;;;3.00;0.90;;;33.70;16.10;;;;;;5114291;27;37786;-78
2021/05/17 09:41:38;;;;;;;14.00;1.20;;;34.30;16.10;;;;;;5130965;27;38088;-79
2021/05/17 09:44:07;;;;;;;1.47;0.50;;;34.10;15.50;;;;;;5118569;27;35619;-79
2021/05/17 09:46:57;;;;;;;2.13;0.63;;;32.70;15.50;;;;;;5143419;27;39813;-78
2021/05/17 09:49:32;;;;;;;1.00;0.60;;;31.40;17.00;;;;;;5126556;27;39685;-79
2021/05/17 09:52:15;;;;;;;5.03;0.60;;;30.00;17.80;;;;;;5122482;27;36830;-78
2021/05/17 09:55:02;;;;;;;1.27;0.50;;;28.30;21.00;;;;;;5116238;27;36866;-77
2021/05/17 09:57:33;;;;;;;3.03;0.50;;;25.90;23.00;;;;;;5127199;27;38792;-77
2021/05/17 10:00:09;;;;;;;2.50;0.73;;;24.10;24.10;;;;;;5135454;27;39103;-78
2021/05/17 10:02:39;;;;;;;3.30;0.90;;;23.50;25.70;;;;;;5113838;27;37596;-79
2021/05/17 10:05:19;;;;;;;2.00;0.50;;;24.60;24.20;;;;;;5141246;27;38180;-79
2021/05/17 10:07:48;;;;;;;1.70;0.50;;;25.30;22.70;;;;;;5125119;27;39750;-79
2021/05/17 10:10:19;;;;;;;4.53;0.60;;;25.50;22.40;;;;;;5127944;27;39396;-78
2021/05/17 10:12:47;;;;;;;8.10;0.93;;;25.60;22.70;;;;;;5133531;27;38269;-79
2021/05/17 10:15:16;;;;;;;4.83;0.80;;;26.80;22.20;;;;;;5137449;27;37710;-79
2021/05/17 10:17:44;;;;;;;3.00;0.83;;;28.60;20.50;;;;;;5132302;27;40197;-77
2021/05/17 10:20:16;;;;;;;6.07;1.20;;;30.10;19.30;;;;;;5139467;27;39488;-80
2021/05/17 10:22:44;;;;;;;1.60;0.50;;;31.40;18.10;;;;;;5128813;27;37807;-79
2021/05/17 10:25:13;;;;;;;1.63;0.60;;;30.70;17.90;;;;;;5143222;27;37589;-79
2021/05/17 10:27:45;;;;;;;1.03;0.50;;;29.00;19.60;;;;;;5116864;27;39594;-80
2021/05/17 10:30:15;;;;;;;3.53;0.63;;;27.60;20.30;;;;;;5108260;28;39296;-79
2021/05/17 10:32:45;;;;;;;1.20;0.50;;;26.40;21.20;;;;;;5118400;28;38108;-79
2021/05/17 10:35:18;;;;;;;1.97;0.60;;;25.40;22.10;;;;;;5119031;28;37061;-80
2021/05/17 10:37:47;;;;;;;1.20;0.67;;;24.10;23.40;;;;;;5114980;28;38933;-80
2021/05/17 10:40:33;;;;;;;1.13;0.67;;;23.30;24.80;;;;;;5119675;28;38793;-78
2021/05/17 10:43:17;;;;;;;3.30;0.60;;;22.60;24.90;;;;;;5114726;28;37701;-78
2021/05/17 10:48:33;;;;;;;6.53;0.60;;;22.60;25.80;;;;;;5105318;28;39645;-78
2021/05/17 10:51:17;;;;;;;2.80;0.60;;;22.70;25.10;;;;;;5129852;27;37811;-79
2021/05/17 10:53:52;;;;;;;9.63;0.83;;;23.10;24.70;;;;;;5103079;28;36902;-79
2021/05/17 10:56:50;;;;;;;3.23;0.70;;;23.10;24.00;;;;;;5096303;28;37288;-79
2021/05/17 11:02:16;;;;;;;1.90;0.60;;;21.80;25.80;;;;;;5111811;28;39811;-79
2021/05/17 11:04:57;;;;;;;3.03;0.60;;;21.60;26.50;;;;;;5098494;28;36565;-79
2021/05/17 11:07:27;;;;;;;5.43;0.70;;;21.50;27.00;;;;;;5115071;28;37147;-78
2021/05/17 11:10:11;;;;;;;2.80;0.67;;;21.50;27.30;;;;;;5121421;28;40121;-78
2021/05/17 11:13:06;;;;;;;4.30;0.77;;;21.40;27.30;;;;;;5104251;28;37903;-78
2021/05/17 11:15:48;;;;;;;3.57;1.07;;;21.30;27.30;;;;;;5119260;28;38394;-79
2021/05/17 11:18:25;;;;;;;1.53;0.63;;;22.00;26.90;;;;;;5121291;28;38236;-80
2021/05/17 11:20:54;;;;;;;2.50;0.50;;;22.40;25.60;;;;;;5117228;28;39761;-79
2021/05/17 11:23:46;;;;;;;2.97;0.50;;;22.60;25.40;;;;;;5116346;28;40216;-78
2021/05/17 11:26:16;;;;;;;3.97;1.47;;;22.80;25.10;;;;;;5098006;28;37996;-79
2021/05/17 11:29:10;;;;;;;8.40;0.80;;;23.10;24.80;;;;;;5116339;28;37027;-80
2021/05/17 11:31:46;;;;;;;3.30;0.60;;;23.30;24.50;;;;;;5071638;27;38348;-79
2021/05/17 11:34:20;;;;;;;5.50;1.13;;;23.20;24.00;;;;;;5113101;27;39459;-79
2021/05/17 11:36:51;;;;;;;3.37;0.70;;;22.80;24.60;;;;;;5113345;27;39340;-79
2021/05/17 11:39:23;;;;;;;4.80;0.93;;;22.40;24.90;;;;;;5097964;28;35754;-79
2021/05/17 11:42:03;;;;;;;2.07;0.57;;;22.30;25.40;;;;;;5085432;28;38251;-77
2021/05/17 11:44:33;;;;;;;1.17;0.60;;;22.20;25.60;;;;;;5114756;27;39961;-78
2021/05/17 11:47:02;;;;;;;5.50;0.60;;;22.00;26.50;;;;;;5120409;27;39964;-77
2021/05/17 11:49:33;;;;;;;1.37;0.57;;;21.40;26.10;;;;;;5110579;27;37334;-78
2021/05/17 11:52:02;;;;;;;3.03;0.47;;;21.20;26.30;;;;;;5117812;27;39624;-78
2021/05/17 11:54:38;;;;;;;2.40;0.50;;;21.30;25.50;;;;;;5129462;27;38818;-78
2021/05/17 11:57:09;;;;;;;1.30;0.50;;;21.70;25.20;;;;;;5132790;27;38918;-78
2021/05/17 11:59:37;;;;;;;16.13;1.63;;;22.00;25.10;;;;;;5099246;28;36530;-78
2021/05/17 12:02:06;;;;;;;3.80;0.50;;;22.30;25.40;;;;;;5107934;28;39691;-78
2021/05/17 12:04:35;;;;;;;10.87;0.90;;;22.10;25.20;;;;;;5100188;28;38879;-78
2021/05/17 12:07:04;;;;;;;2.30;0.47;;;21.90;25.30;;;;;;5129337;28;39536;-78
2021/05/17 12:09:37;;;;;;;2.13;0.50;;;21.80;25.40;;;;;;5131488;27;38292;-78
2021/05/17 12:12:07;;;;;;;1.20;0.63;;;21.70;25.30;;;;;;5131510;27;39543;-78
2021/05/17 12:14:35;;;;;;;10.43;0.80;;;21.50;25.40;;;;;;5116330;27;39036;-77
2021/05/17 12:17:13;;;;;;;2.23;0.60;;;21.20;25.50;;;;;;5114074;27;38826;-76
2021/05/17 12:19:42;;;;;;;1.07;0.50;;;21.10;26.00;;;;;;5119379;27;37643;-77
2021/05/17 12:22:12;;;;;;;8.53;1.90;;;21.00;25.80;;;;;;5113409;27;40076;-78
2021/05/17 12:24:40;;;;;;;2.93;0.40;;;20.90;26.30;;;;;;5115619;27;40190;-78
2021/05/17 12:27:08;;;;;;;1.63;0.50;;;21.20;25.80;;;;;;5109547;27;38410;-77
2021/05/17 12:29:55;;;;;;;5.17;0.80;;;21.40;25.50;;;;;;5095303;27;36918;-77
2021/05/17 12:32:24;;;;;;;9.03;0.73;;;21.70;24.80;;;;;;5134003;27;39184;-77
2021/05/17 12:34:57;;;;;;;0.90;0.50;;;21.30;25.00;;;;;;5111942;28;37531;-78
2021/05/17 12:37:26;;;;;;;4.10;1.43;;;20.90;25.60;;;;;;5131419;27;38142;-78
2021/05/17 12:40:25;;;;;;;3.77;0.50;;;20.80;26.30;;;;;;5129369;27;38093;-78
2021/05/17 12:43:13;;;;;;;1.40;0.60;;;20.70;26.40;;;;;;5127724;27;40421;-78
2021/05/17 12:45:44;;;;;;;3.83;0.70;;;20.50;25.70;;;;;;5127276;27;38881;-78
2021/05/17 12:48:20;;;;;;;3.33;0.50;;;20.20;26.10;;;;;;5110781;27;37638;-78
2021/05/17 12:50:53;;;;;;;1.77;0.40;;;20.20;26.50;;;;;;5126260;27;37132;-79
2021/05/17 12:53:25;;;;;;;3.97;0.60;;;20.20;26.50;;;;;;5130359;27;40829;-79
2021/05/17 12:55:53;;;;;;;0.80;0.60;;;20.40;26.60;;;;;;5115065;27;38847;-79
2021/05/17 12:58:32;;;;;;;1.03;0.40;;;20.70;26.60;;;;;;5130786;27;38004;-79
2021/05/17 13:01:00;;;;;;;2.73;0.60;;;20.80;26.50;;;;;;5112223;27;35869;-79
2021/05/17 13:03:33;;;;;;;4.60;0.80;;;20.90;26.50;;;;;;5110469;27;39839;-79
2021/05/17 13:06:06;;;;;;;1.63;0.70;;;20.70;26.50;;;;;;5109918;27;37727;-78
2021/05/17 13:08:57;;;;;;;1.67;0.50;;;20.70;27.00;;;;;;5113902;27;36883;-79
2021/05/17 13:11:32;;;;;;;2.27;0.50;;;20.60;26.60;;;;;;5128413;27;37202;-79
2021/05/17 13:14:03;;;;;;;2.70;0.60;;;20.50;26.90;;;;;;5095358;27;38812;-80
2021/05/17 13:16:35;;;;;;;1.10;0.50;;;20.50;27.30;;;;;;5117769;27;38161;-81
2021/05/17 13:22:29;;;;;;;1.23;0.60;;;20.50;27.40;;;;;;5102687;27;36217;-80
2021/05/17 13:25:26;;;;;;;1.73;0.50;;;20.50;27.40;;;;;;5111201;27;40193;-80